Time;durP1;ratioP1;P1;durP2;ratioP2;P2;SDS_P1;SDS_P2;PMS_P1;PMS_P2;Temp;Humidity;BMP_temperature;BMP_pressure;BME280_temperature;BME280_humidity;BME280_pressure;Samples;Min_cycle;Max_cycle;Signal;HPM_P1;HPM_P2
2022/10/07 00:00:41;;;;;;;8.45;1.90;;;;;;;14.94;100.00;99856.13;5045742;28;20061;-91
2022/10/07 00:03:09;;;;;;;9.38;2.00;;;;;;;15.00;100.00;99872.34;5069435;28;20521;-92
2022/10/07 00:05:36;;;;;;;8.70;1.73;;;;;;;15.28;100.00;99866.91;5042638;28;20491;-92
2022/10/07 00:08:02;;;;;;;9.30;2.30;;;;;;;15.19;100.00;99894.78;5052587;28;20181;-92
2022/10/07 00:10:29;;;;;;;13.52;2.22;;;;;;;14.80;100.00;99838.63;5051898;28;20095;-91
2022/10/07 00:12:58;;;;;;;10.02;1.88;;;;;;;15.22;100.00;99905.13;5050284;28;20118;-91
2022/10/07 00:15:26;;;;;;;10.50;1.70;;;;;;;15.29;100.00;99892.34;5051679;28;20302;-91
2022/10/07 00:17:52;;;;;;;12.75;2.15;;;;;;;14.89;100.00;99845.91;5051869;28;20541;-93
2022/10/07 00:20:19;;;;;;;6.88;1.92;;;;;;;15.11;100.00;99844.41;5041340;28;20476;-94
2022/10/07 00:22:46;;;;;;;9.02;2.15;;;;;;;15.17;100.00;99851.84;5061798;28;20061;-93
2022/10/07 00:25:13;;;;;;;9.45;1.60;;;;;;;15.40;100.00;99881.03;5043207;28;20050;-92
2022/10/07 00:27:39;;;;;;;10.93;1.88;;;;;;;15.24;100.00;99858.38;5046429;28;20175;-92
2022/10/07 00:30:07;;;;;;;9.18;1.88;;;;;;;15.39;100.00;99911.84;5048179;28;20491;-92
2022/10/07 00:32:34;;;;;;;9.05;2.00;;;;;;;15.19;100.00;99866.63;5038560;28;20454;-92
2022/10/07 00:35:00;;;;;;;7.65;1.63;;;;;;;15.43;100.00;99876.38;5052139;28;20056;-93
2022/10/07 00:37:27;;;;;;;8.95;1.65;;;;;;;15.38;100.00;99881.13;5052716;28;20438;-92
2022/10/07 00:39:54;;;;;;;7.95;1.70;;;;;;;15.39;100.00;99848.56;5051486;28;20537;-92
2022/10/07 00:42:20;;;;;;;8.27;1.65;;;;;;;15.74;100.00;99903.19;5049918;28;20106;-91
2022/10/07 00:44:47;;;;;;;9.65;1.80;;;;;;;15.84;100.00;99890.22;5050740;28;20041;-92
2022/10/07 00:47:26;;;;;;;12.70;1.52;;;;;;;15.66;100.00;99887.09;5047958;28;20045;-91
2022/10/07 00:50:14;;;;;;;6.78;1.50;;;;;;;16.25;100.00;99894.22;5065252;28;20044;-91
2022/10/07 00:52:49;;;;;;;4.68;1.30;;;;;;;16.39;100.00;99893.19;5051006;28;20099;-91
2022/10/07 00:55:20;;;;;;;8.73;1.60;;;;;;;16.08;100.00;99882.28;5045380;28;20057;-91
2022/10/07 00:57:50;;;;;;;4.75;1.50;;;;;;;16.04;100.00;99865.84;5065228;28;20049;-91
2022/10/07 01:00:17;;;;;;;5.70;1.58;;;;;;;16.19;100.00;99886.78;5050050;28;20045;-92
2022/10/07 01:02:44;;;;;;;6.82;1.30;;;;;;;15.73;100.00;99859.28;5050068;28;20111;-91
2022/10/07 01:05:13;;;;;;;6.85;1.70;;;;;;;15.81;100.00;99864.03;5049975;28;20077;-90
2022/10/07 01:07:41;;;;;;;8.75;1.50;;;;;;;15.47;100.00;99880.47;5049364;28;20080;-92
2022/10/07 01:10:10;;;;;;;7.25;1.45;;;;;;;15.83;100.00;99881.47;5048084;28;20589;-92
2022/10/07 01:12:40;;;;;;;7.88;1.70;;;;;;;15.82;100.00;99861.28;5050822;28;20115;-92
2022/10/07 01:15:07;;;;;;;7.45;1.55;;;;;;;15.73;100.00;99859.28;5043564;28;20045;-92
2022/10/07 01:17:55;;;;;;;6.93;1.75;;;;;;;15.82;100.00;99853.38;5065214;28;20049;-92
2022/10/07 01:20:30;;;;;;;5.65;1.33;;;;;;;15.39;100.00;99838.00;5051502;28;20072;-92
2022/10/07 01:23:26;;;;;;;8.38;1.55;;;;;;;15.74;100.00;99845.13;5052216;28;20510;-92
2022/10/07 01:26:18;;;;;;;10.68;1.60;;;;;;;15.53;100.00;99852.84;5052100;28;20471;-93
2022/10/07 01:28:54;;;;;;;8.73;1.67;;;;;;;15.71;100.00;99848.00;5053414;28;20049;-93
2022/10/07 01:31:32;;;;;;;7.65;1.65;;;;;;;15.26;100.00;99802.91;5056246;28;20053;-91
2022/10/07 01:34:02;;;;;;;6.75;1.30;;;;;;;15.83;100.00;99835.72;5050795;28;20045;-92
2022/10/07 01:36:30;;;;;;;7.57;1.42;;;;;;;15.64;100.00;99834.41;5055645;28;20075;-92
2022/10/07 01:39:01;;;;;;;10.30;1.55;;;;;;;15.71;100.00;99840.94;5053919;28;20057;-93
2022/10/07 01:41:30;;;;;;;9.63;1.48;;;;;;;15.70;100.00;99836.59;5057035;28;20099;-94
2022/10/07 01:43:59;;;;;;;8.05;1.63;;;;;;;15.56;100.00;99811.25;5055411;28;20045;-94
2022/10/07 01:46:27;;;;;;;6.40;1.55;;;;;;;15.41;100.00;99774.59;5041820;28;20056;-92
2022/10/07 01:48:56;;;;;;;4.63;1.33;;;;;;;15.74;100.00;99794.97;5053724;28;20054;-93
2022/10/07 01:51:29;;;;;;;7.35;1.42;;;;;;;15.52;100.00;99796.56;5055423;28;20127;-93
2022/10/07 01:54:10;;;;;;;3.70;1.10;;;;;;;15.82;100.00;99811.13;5048560;28;20045;-92
2022/10/07 01:56:58;;;;;;;6.13;1.35;;;;;;;15.67;100.00;99807.81;5066815;28;20064;-93
2022/10/07 01:59:53;;;;;;;8.07;1.50;;;;;;;15.46;100.00;99818.13;5052433;28;20052;-92
2022/10/07 02:02:43;;;;;;;4.65;1.10;;;;;;;15.25;100.00;99846.06;5039861;28;20075;-92
2022/10/07 02:05:26;;;;;;;8.98;1.27;;;;;;;15.00;100.00;99829.34;5054092;28;20041;-93
2022/10/07 02:08:18;;;;;;;9.35;1.60;;;;;;;14.81;100.00;99821.88;5056418;28;20052;-92
2022/10/07 02:11:05;;;;;;;3.72;0.90;;;;;;;14.83;100.00;99801.53;5051346;28;20471;-92
2022/10/07 02:13:39;;;;;;;5.15;1.00;;;;;;;14.77;100.00;99820.41;5054560;28;20095;-92
2022/10/07 02:16:25;;;;;;;3.63;1.00;;;;;;;14.83;100.00;99819.97;5047944;28;20053;-92
2022/10/07 02:18:52;;;;;;;2.88;0.90;;;;;;;14.78;100.00;99804.50;5069503;28;20123;-92
2022/10/07 02:21:25;;;;;;;4.05;1.02;;;;;;;14.96;100.00;99807.63;5047865;28;20159;-92
2022/10/07 02:23:55;;;;;;;2.80;0.73;;;;;;;14.90;100.00;99813.31;5041434;28;20485;-92
2022/10/07 02:26:25;;;;;;;3.15;0.88;;;;;;;14.81;100.00;99801.63;5049075;28;20065;-90
2022/10/07 02:28:54;;;;;;;3.45;0.98;;;;;;;14.77;100.00;99792.25;5045740;28;20041;-91
2022/10/07 02:31:25;;;;;;;1.33;0.70;;;;;;;14.71;100.00;99803.22;5053535;28;20049;-90
2022/10/07 02:33:56;;;;;;;1.77;0.70;;;;;;;14.79;100.00;99797.44;5053480;28;20140;-90
2022/10/07 02:36:30;;;;;;;1.05;0.70;;;;;;;14.50;100.00;99760.75;5052834;28;20049;-90
2022/10/07 02:39:00;;;;;;;2.20;0.80;;;;;;;14.53;100.00;99760.53;5046583;28;20138;-90
2022/10/07 02:41:34;;;;;;;2.45;0.90;;;;;;;14.64;100.00;99766.88;5044090;28;20457;-91
2022/10/07 02:44:02;;;;;;;2.50;0.95;;;;;;;14.43;100.00;99777.94;5053623;28;20372;-90
2022/10/07 02:46:36;;;;;;;0.93;0.60;;;;;;;14.14;100.00;99753.59;5050192;28;20108;-90
2022/10/07 02:49:07;;;;;;;;;;;;;;;14.40;100.00;99789.50;5043293;28;20124;-90
2022/10/07 02:51:45;;;;;;;2.05;0.80;;;;;;;13.74;100.00;99765.00;5050214;28;20040;-91
2022/10/07 02:54:15;;;;;;;1.15;0.70;;;;;;;13.82;100.00;99782.91;5048597;28;20060;-91
2022/10/07 02:56:43;;;;;;;1.67;0.88;;;;;;;13.57;100.00;99767.91;5050491;28;20045;-91
2022/10/07 02:59:13;;;;;;;0.60;0.60;;;;;;;13.64;100.00;99771.81;5045110;28;20056;-92
2022/10/07 03:01:45;;;;;;;3.13;0.80;;;;;;;13.61;100.00;99777.28;5045869;28;20049;-91
2022/10/07 03:04:12;;;;;;;1.17;0.73;;;;;;;13.43;100.00;99774.06;5051316;28;20128;-91
2022/10/07 03:06:41;;;;;;;1.70;0.70;;;;;;;13.33;100.00;99763.28;5047343;28;20821;-91
2022/10/07 03:09:08;;;;;;;1.50;0.80;;;;;;;13.36;100.00;99797.25;5052707;28;20053;-91
2022/10/07 03:11:37;;;;;;;2.88;0.82;;;;;;;13.25;100.00;99789.19;5062648;28;20067;-91
2022/10/07 03:14:04;;;;;;;0.88;0.70;;;;;;;13.32;100.00;99794.94;5053514;28;20645;-91
2022/10/07 03:16:31;;;;;;;2.75;0.80;;;;;;;13.28;100.00;99794.28;5051542;28;20045;-91
2022/10/07 03:18:58;;;;;;;1.45;0.70;;;;;;;13.11;100.00;99767.25;5053297;28;20057;-91
2022/10/07 03:21:25;;;;;;;1.13;0.70;;;;;;;13.16;100.00;99790.63;5047999;28;20056;-91
2022/10/07 03:23:53;;;;;;;2.25;0.90;;;;;;;13.25;100.00;99791.84;5053161;28;20049;-92
2022/10/07 03:26:21;;;;;;;1.25;0.75;;;;;;;13.33;100.00;99807.97;5046263;28;20487;-88
2022/10/07 03:28:47;;;;;;;1.45;0.70;;;;;;;13.42;100.00;99806.53;5050075;28;20099;-88
2022/10/07 03:31:14;;;;;;;4.82;0.90;;;;;;;13.46;100.00;99792.28;5050514;28;20457;-92
2022/10/07 03:33:42;;;;;;;1.58;0.75;;;;;;;13.52;100.00;99773.44;5053444;28;20140;-87
2022/10/07 03:36:08;;;;;;;1.92;0.70;;;;;;;13.51;100.00;99739.38;5046555;28;20544;-90
2022/10/07 03:38:35;;;;;;;2.30;0.80;;;;;;;13.72;100.00;99772.13;5061251;28;20049;-90
2022/10/07 03:41:03;;;;;;;2.03;0.80;;;;;;;13.72;100.00;99769.50;5044285;28;20053;-91
2022/10/07 03:43:30;;;;;;;2.05;0.77;;;;;;;13.67;100.00;99756.69;5051838;28;20080;-90
2022/10/07 03:45:57;;;;;;;4.13;0.90;;;;;;;13.79;100.00;99747.13;5048987;28;20048;-90
2022/10/07 03:48:24;;;;;;;2.75;0.90;;;;;;;13.78;100.00;99761.22;5052407;28;20099;-90
2022/10/07 03:50:51;;;;;;;2.92;1.02;;;;;;;13.84;100.00;99787.13;5050897;28;20378;-90
2022/10/07 03:53:19;;;;;;;2.40;1.05;;;;;;;13.90;100.00;99770.09;5038866;28;20053;-90
2022/10/07 03:55:46;;;;;;;3.63;1.00;;;;;;;13.84;100.00;99762.59;5043495;28;20052;-90
2022/10/07 03:58:12;;;;;;;4.07;1.33;;;;;;;13.70;100.00;99746.88;5048081;28;20103;-90
2022/10/07 04:00:40;;;;;;;1.75;0.88;;;;;;;13.71;100.00;99749.44;5046890;28;20049;-91
2022/10/07 04:03:07;;;;;;;3.38;1.00;;;;;;;13.46;100.00;99737.88;5049417;28;20110;-91
2022/10/07 04:05:36;;;;;;;4.80;1.20;;;;;;;13.19;100.00;99743.13;5050630;28;20464;-90
2022/10/07 04:08:04;;;;;;;3.55;1.02;;;;;;;13.30;100.00;99753.78;5045601;28;20131;-90
2022/10/07 04:10:30;;;;;;;5.85;1.45;;;;;;;13.10;100.00;99755.06;5041766;28;20102;-91
2022/10/07 04:12:57;;;;;;;5.90;1.25;;;;;;;13.21;100.00;99769.28;5052036;28;20056;-91
2022/10/07 04:15:24;;;;;;;2.83;0.82;;;;;;;13.09;100.00;99760.44;5048403;28;20045;-91
2022/10/07 04:17:57;;;;;;;3.13;1.00;;;;;;;13.16;100.00;99768.78;5064136;28;20491;-92
2022/10/07 04:20:25;;;;;;;2.97;1.17;;;;;;;12.96;100.00;99743.72;5068934;28;20509;-90
2022/10/07 04:22:52;;;;;;;2.88;1.00;;;;;;;13.00;100.00;99766.28;5051905;28;20128;-90
2022/10/07 04:25:33;;;;;;;4.15;1.10;;;;;;;12.95;100.00;99726.31;5045348;28;20046;-90
2022/10/07 04:28:04;;;;;;;5.50;1.35;;;;;;;12.98;100.00;99755.84;5043425;28;20065;-87
2022/10/07 04:30:33;;;;;;;7.03;1.25;;;;;;;12.90;100.00;99756.31;5048540;28;21580;-88
2022/10/07 04:33:01;;;;;;;2.10;0.90;;;;;;;12.89;100.00;99759.91;5050767;28;20388;-90
2022/10/07 04:35:28;;;;;;;4.78;1.20;;;;;;;12.81;100.00;99769.19;5051368;28;20446;-91
2022/10/07 04:37:56;;;;;;;3.58;1.10;;;;;;;12.80;100.00;99768.38;5048410;28;20045;-90
2022/10/07 04:40:23;;;;;;;7.53;1.92;;;;;;;12.83;100.00;99775.19;5050923;28;20098;-89
2022/10/07 04:45:36;;;;;;;6.10;1.73;;;;;;;12.52;100.00;99754.31;5049066;28;20099;-91
2022/10/07 04:48:07;;;;;;;5.00;1.10;;;;;;;12.58;100.00;99771.44;5051708;28;20454;-90
2022/10/07 04:50:37;;;;;;;7.60;1.70;;;;;;;12.51;100.00;99757.00;5050665;28;20095;-91
2022/10/07 04:53:09;;;;;;;8.57;1.50;;;;;;;12.63;100.00;99777.28;5051394;28;20048;-91
2022/10/07 04:55:40;;;;;;;7.57;1.50;;;;;;;12.47;100.00;99779.16;5051262;28;20494;-91
2022/10/07 04:58:07;;;;;;;4.88;1.35;;;;;;;12.26;100.00;99761.13;5050054;28;20063;-91
2022/10/07 05:00:34;;;;;;;6.10;1.48;;;;;;;12.44;100.00;99777.53;5050854;28;20438;-91
2022/10/07 05:03:02;;;;;;;6.32;1.52;;;;;;;12.16;100.00;99759.97;5044481;28;20057;-91
2022/10/07 05:05:29;;;;;;;6.25;1.30;;;;;;;12.38;100.00;99775.31;5050866;28;20053;-92
2022/10/07 05:07:55;;;;;;;9.73;2.08;;;;;;;12.12;100.00;99732.25;5050485;28;20056;-91
2022/10/07 05:10:22;;;;;;;9.65;2.17;;;;;;;12.24;100.00;99752.50;5051393;28;20053;-91
2022/10/07 05:12:49;;;;;;;6.28;1.45;;;;;;;12.21;100.00;99754.47;5041353;28;20064;-91
2022/10/07 05:15:22;;;;;;;5.40;1.80;;;;;;;12.09;100.00;99750.78;5045393;28;20046;-89
2022/10/07 05:17:49;;;;;;;8.93;1.63;;;;;;;12.25;100.00;99764.72;5050400;28;20076;-89
2022/10/07 05:20:15;;;;;;;10.57;2.13;;;;;;;12.21;100.00;99749.22;5046242;28;20045;-89
2022/10/07 05:22:42;;;;;;;8.90;1.80;;;;;;;12.08;100.00;99746.50;5035042;28;20542;-90
2022/10/07 05:25:09;;;;;;;7.60;1.90;;;;;;;12.13;100.00;99741.81;5040522;28;20049;-89
2022/10/07 05:27:35;;;;;;;11.50;2.17;;;;;;;12.02;100.00;99731.09;5048642;28;20045;-91
2022/10/07 05:30:02;;;;;;;6.72;2.33;;;;;;;12.24;100.00;99756.91;5048069;28;20103;-90
2022/10/07 05:32:29;;;;;;;10.02;2.05;;;;;;;12.10;100.00;99748.06;5042738;28;20057;-90
2022/10/07 05:34:56;;;;;;;9.38;2.05;;;;;;;11.93;100.00;99737.75;5050287;28;20049;-91
2022/10/07 05:37:22;;;;;;;7.28;1.80;;;;;;;11.61;100.00;99705.50;5057569;28;20048;-88
2022/10/07 05:39:50;;;;;;;7.03;1.55;;;;;;;11.73;100.00;99731.03;5047173;28;20119;-89
2022/10/07 05:42:17;;;;;;;8.85;1.77;;;;;;;11.65;100.00;99739.34;5047187;28;20052;-91
2022/10/07 05:44:45;;;;;;;12.07;2.72;;;;;;;11.27;100.00;99734.50;5053253;28;20467;-87
2022/10/07 05:47:11;;;;;;;17.23;2.55;;;;;;;11.33;100.00;99751.66;5042618;28;20380;-88
2022/10/07 05:49:40;;;;;;;10.82;2.42;;;;;;;11.21;100.00;99740.09;5040422;28;20164;-92
2022/10/07 05:52:07;;;;;;;11.75;2.00;;;;;;;11.42;100.00;99737.19;5037715;28;20111;-90
2022/10/07 05:54:37;;;;;;;7.15;2.03;;;;;;;11.30;100.00;99697.66;5036279;28;20050;-89
2022/10/07 05:57:03;;;;;;;13.27;2.53;;;;;;;11.56;100.00;99755.56;5043378;28;20049;-91
2022/10/07 05:59:30;;;;;;;9.52;2.28;;;;;;;11.43;100.00;99734.47;5051605;28;20457;-90
2022/10/07 06:01:59;;;;;;;9.15;2.05;;;;;;;11.55;100.00;99748.66;5035583;28;20103;-90
2022/10/07 06:04:26;;;;;;;7.45;2.00;;;;;;;11.66;100.00;99769.03;5053801;28;20044;-90
2022/10/07 06:06:53;;;;;;;6.47;1.67;;;;;;;11.28;100.00;99740.56;5045012;28;20045;-90
2022/10/07 06:14:50;;;;;;;7.03;1.77;;;;;;;11.19;100.00;99749.78;5055304;28;20095;-88
2022/10/07 06:17:17;;;;;;;8.88;2.25;;;;;;;11.18;100.00;99737.63;5053320;28;20055;-88
2022/10/07 06:19:43;;;;;;;7.30;1.80;;;;;;;11.11;100.00;99720.56;5054562;28;20041;-88
2022/10/07 06:22:10;;;;;;;10.32;2.05;;;;;;;11.30;100.00;99754.47;5049261;28;20106;-88
2022/10/07 06:24:37;;;;;;;9.95;1.90;;;;;;;11.12;100.00;99735.34;5056155;28;20049;-87
2022/10/07 06:27:04;;;;;;;9.95;1.75;;;;;;;11.14;100.00;99757.94;5042340;28;20048;-87
2022/10/07 06:29:30;;;;;;;10.30;1.92;;;;;;;11.08;100.00;99749.56;5048981;28;20053;-88
2022/10/07 06:31:57;;;;;;;10.38;1.98;;;;;;;11.06;100.00;99751.41;5053411;28;20063;-87
2022/10/07 06:34:24;;;;;;;10.27;2.25;;;;;;;11.20;100.00;99764.59;5046775;28;20060;-87
2022/10/07 06:36:52;;;;;;;10.20;1.65;;;;;;;11.19;100.00;99774.25;5049139;28;20052;-88
2022/10/07 06:39:19;;;;;;;7.50;1.83;;;;;;;11.23;100.00;99769.69;5050808;28;20049;-88
2022/10/07 06:41:46;;;;;;;9.18;2.15;;;;;;;11.17;100.00;99773.50;5051261;28;20060;-88
2022/10/07 06:44:13;;;;;;;13.25;2.20;;;;;;;11.43;100.00;99797.38;5055291;28;20049;-88
2022/10/07 06:46:39;;;;;;;7.80;1.90;;;;;;;11.16;100.00;99777.03;5051596;28;20049;-87
2022/10/07 06:49:06;;;;;;;7.15;1.80;;;;;;;11.54;100.00;99796.78;5053622;28;20589;-87
2022/10/07 06:51:33;;;;;;;6.78;1.80;;;;;;;11.43;100.00;99763.31;5052996;28;20041;-85
2022/10/07 06:53:59;;;;;;;7.32;1.90;;;;;;;11.56;100.00;99792.28;5064368;28;20453;-84
2022/10/07 06:56:26;;;;;;;6.82;1.80;;;;;;;11.44;100.00;99772.88;5052378;28;20049;-84
2022/10/07 06:58:53;;;;;;;8.80;1.58;;;;;;;11.09;100.00;99752.09;5052674;28;20055;-84
2022/10/07 07:01:19;;;;;;;5.00;1.40;;;;;;;11.33;100.00;99825.88;5053760;28;20052;-86
2022/10/07 07:03:46;;;;;;;11.27;2.38;;;;;;;11.12;100.00;99788.63;5052941;28;20475;-84
2022/10/07 07:06:13;;;;;;;9.82;1.85;;;;;;;11.21;100.00;99782.84;5061009;28;20045;-85
2022/10/07 07:08:40;;;;;;;9.25;1.65;;;;;;;11.27;100.00;99781.66;5053128;28;20041;-85
2022/10/07 07:11:56;;;;;;;6.63;1.65;;;;;;;11.69;100.00;99809.03;5049814;28;20453;-85
2022/10/07 07:13:57;;;;;;;7.55;1.67;;;;;;;11.42;100.00;99771.25;5042589;28;20052;-87
2022/10/07 07:16:24;;;;;;;8.55;1.90;;;;;;;11.71;100.00;99811.56;5053621;28;20037;-87
2022/10/07 07:18:52;;;;;;;7.45;1.65;;;;;;;11.43;100.00;99772.94;5053342;28;20632;-88
2022/10/07 07:21:20;;;;;;;13.07;3.00;;;;;;;11.45;100.00;99787.66;5053086;28;20067;-87
2022/10/07 07:23:47;;;;;;;10.30;1.75;;;;;;;11.15;100.00;99750.91;5066402;28;20545;-87
2022/10/07 07:26:14;;;;;;;15.25;2.30;;;;;;;11.16;100.00;99771.78;5064183;28;20053;-86
2022/10/07 07:28:40;;;;;;;10.05;1.95;;;;;;;11.30;100.00;99791.16;5055037;28;20048;-87
2022/10/07 07:31:09;;;;;;;16.75;2.63;;;;;;;11.31;100.00;99772.69;5052867;28;20115;-86
2022/10/07 07:33:39;;;;;;;17.88;2.88;;;;;;;11.82;100.00;99792.59;5046678;28;20453;-87
2022/10/07 07:36:17;;;;;;;7.10;2.30;;;;;;;12.67;100.00;99838.31;5049831;28;20045;-87
2022/10/07 07:38:56;;;;;;;10.35;2.22;;;;;;;13.32;100.00;99845.72;5081570;28;20060;-87
2022/10/07 07:41:32;;;;;;;11.10;2.30;;;;;;;14.03;100.00;99847.28;5053155;28;20057;-86
2022/10/07 07:44:00;;;;;;;8.32;2.10;;;;;;;13.10;100.00;99801.50;5057361;28;20045;-87
2022/10/07 07:46:33;;;;;;;8.68;1.50;;;;;;;12.91;100.00;99836.84;5052963;28;20592;-87
2022/10/07 07:49:01;;;;;;;9.80;2.63;;;;;;;12.51;100.00;99807.72;5082050;28;20055;-86
2022/10/07 07:51:28;;;;;;;11.98;2.42;;;;;;;12.02;100.00;99750.31;5045931;28;20053;-87
2022/10/07 07:53:54;;;;;;;8.80;1.88;;;;;;;12.65;100.00;99835.78;5052177;28;20061;-87
2022/10/07 07:56:21;;;;;;;10.38;2.17;;;;;;;12.60;100.00;99774.00;5051226;28;20107;-86
2022/10/07 07:58:48;;;;;;;10.07;1.63;;;;;;;13.52;100.00;99785.78;5065616;28;20430;-86
2022/10/07 08:01:17;;;;;;;9.65;2.53;;;;;;;13.50;100.00;99780.59;5039042;28;20051;-86
2022/10/07 08:03:47;;;;;;;17.38;2.90;;;;;;;13.22;100.00;99777.09;5053225;28;20548;-86
2022/10/07 08:06:16;;;;;;;9.50;2.35;;;;;;;13.27;100.00;99808.34;5057649;28;20508;-86
2022/10/07 08:08:43;;;;;;;8.23;1.88;;;;;;;13.53;100.00;99801.44;5056343;28;20052;-87
2022/10/07 08:11:12;;;;;;;6.57;1.50;;;;;;;14.40;100.00;99834.28;5050177;28;20061;-87
2022/10/07 08:13:40;;;;;;;6.88;2.03;;;;;;;13.94;100.00;99804.94;5053273;28;20482;-87
2022/10/07 08:16:13;;;;;;;8.93;1.60;;;;;;;13.80;100.00;99792.69;5058596;28;20060;-87
2022/10/07 08:18:41;;;;;;;9.25;2.13;;;;;;;14.24;100.00;99821.31;5048229;28;20053;-86
2022/10/07 08:21:11;;;;;;;13.85;1.83;;;;;;;14.77;100.00;99818.59;5050861;28;20485;-86
2022/10/07 08:23:41;;;;;;;8.55;2.15;;;;;;;14.67;100.00;99778.03;5039909;28;20044;-86
2022/10/07 08:26:08;;;;;;;13.63;2.53;;;;;;;14.51;100.00;99794.03;5051179;28;20045;-86
2022/10/07 08:28:36;;;;;;;16.20;2.55;;;;;;;14.60;100.00;99830.31;5050728;28;20045;-86
2022/10/07 08:31:15;;;;;;;12.10;3.08;;;;;;;15.00;100.00;99830.19;5051472;28;20081;-85
2022/10/07 08:33:44;;;;;;;15.10;2.22;;;;;;;14.57;100.00;99841.03;5051867;28;20505;-86
2022/10/07 08:36:16;;;;;;;11.13;2.40;;;;;;;14.71;100.00;99837.47;5051288;28;20064;-86
2022/10/07 08:38:44;;;;;;;12.60;2.47;;;;;;;15.09;100.00;99839.22;5051097;28;20052;-85
2022/10/07 08:41:27;;;;;;;18.88;3.70;;;;;;;14.98;100.00;99847.06;5055154;28;20415;-88
2022/10/07 08:43:54;;;;;;;8.75;1.83;;;;;;;14.51;100.00;99796.66;5059251;28;20049;-88
2022/10/07 08:46:33;;;;;;;9.98;2.22;;;;;;;14.24;100.00;99767.81;5048241;28;20049;-88
2022/10/07 08:49:08;;;;;;;10.38;2.40;;;;;;;14.44;100.00;99792.78;5051567;28;20478;-86
2022/10/07 08:51:43;;;;;;;13.27;3.05;;;;;;;14.23;100.00;99793.28;5060806;28;20639;-86
2022/10/07 08:54:22;;;;;;;13.23;2.42;;;;;;;14.14;100.00;99772.84;5052270;28;20419;-86
2022/10/07 08:56:49;;;;;;;10.40;2.40;;;;;;;14.05;100.00;99768.22;5051550;28;20467;-86
2022/10/07 08:59:22;;;;;;;9.82;2.70;;;;;;;14.03;100.00;99762.22;5053678;28;20477;-86
2022/10/07 09:01:58;;;;;;;12.10;2.50;;;;;;;14.12;100.00;99802.88;5051641;28;20053;-86
2022/10/07 09:04:40;;;;;;;11.35;2.15;;;;;;;14.35;100.00;99812.69;5049675;28;20056;-85
2022/10/07 09:07:32;;;;;;;14.98;3.13;;;;;;;14.20;100.00;99818.97;5041846;28;20057;-85
2022/10/07 09:10:07;;;;;;;11.65;2.92;;;;;;;14.25;100.00;99830.03;5048511;28;20107;-86
2022/10/07 09:12:47;;;;;;;10.07;2.33;;;;;;;14.28;100.00;99832.47;5055519;28;20060;-87
2022/10/07 09:15:51;;;;;;;9.93;2.25;;;;;;;14.28;100.00;99821.09;5037736;28;20404;-86
2022/10/07 09:18:28;;;;;;;;;;;;;;;14.38;100.00;99854.59;5050767;28;20052;-86
2022/10/07 09:20:55;;;;;;;13.80;2.33;;;;;;;14.04;100.00;99817.38;5049133;28;20285;-87
2022/10/07 09:23:29;;;;;;;13.75;2.42;;;;;;;13.86;100.00;99843.13;5051107;28;20053;-86
2022/10/07 09:25:56;;;;;;;9.80;1.90;;;;;;;13.86;100.00;99787.00;5051344;28;20053;-86
2022/10/07 09:28:28;;;;;;;9.52;2.45;;;;;;;14.34;100.00;99831.22;5050152;28;20114;-89
2022/10/07 09:30:57;;;;;;;14.82;2.67;;;;;;;14.43;100.00;99813.00;5051332;28;20058;-92
2022/10/07 09:33:27;;;;;;;9.48;2.15;;;;;;;14.57;100.00;99792.75;5053376;28;20103;-92
2022/10/07 09:36:04;;;;;;;12.20;2.63;;;;;;;14.60;100.00;99838.22;5052799;28;20044;-90
2022/10/07 09:38:36;;;;;;;11.07;2.33;;;;;;;14.83;100.00;99817.34;5052556;28;20057;-92
2022/10/07 09:41:16;;;;;;;13.70;2.65;;;;;;;14.85;98.86;99831.25;5052808;28;20057;-92
2022/10/07 09:43:49;;;;;;;9.13;1.88;;;;;;;15.02;88.95;99837.16;5042345;28;20045;-93
2022/10/07 09:46:34;;;;;;;11.35;2.17;;;;;;;14.85;78.93;99839.16;5056316;28;20053;-91
2022/10/07 09:49:06;;;;;;;10.43;2.05;;;;;;;15.29;74.00;99832.53;5059177;28;20053;-92
2022/10/07 09:51:34;;;;;;;12.55;2.60;;;;;;;15.04;71.77;99801.81;5059460;28;20487;-92
2022/10/07 09:54:18;;;;;;;11.00;2.38;;;;;;;14.98;70.81;99853.16;5057366;28;20071;-92
2022/10/07 09:56:46;;;;;;;10.07;2.13;;;;;;;15.06;70.91;99841.25;5050258;28;20052;-92
2022/10/07 09:59:18;;;;;;;9.45;2.28;;;;;;;15.34;72.75;99835.69;5055550;28;20052;-92
2022/10/07 10:01:56;;;;;;;9.43;1.97;;;;;;;15.38;71.26;99842.41;5054461;28;20425;-92
2022/10/07 10:04:32;;;;;;;13.88;2.20;;;;;;;15.18;68.97;99843.84;5064419;28;20055;-91
2022/10/07 10:07:18;;;;;;;12.65;2.38;;;;;;;15.22;70.20;99859.47;5047701;28;20078;-85
2022/10/07 10:09:52;;;;;;;9.20;1.58;;;;;;;15.31;71.81;99841.16;5051409;28;20479;-91
2022/10/07 10:12:20;;;;;;;9.63;1.90;;;;;;;15.17;69.76;99849.22;5065782;28;20049;-90
2022/10/07 10:14:53;;;;;;;12.52;2.42;;;;;;;15.13;70.44;99853.03;5069626;28;20049;-91
2022/10/07 10:17:20;;;;;;;8.95;2.30;;;;;;;15.16;71.73;99851.03;5041384;28;20095;-91
2022/10/07 10:19:46;;;;;;;10.73;2.53;;;;;;;14.89;68.22;99808.16;5055788;28;20099;-91
2022/10/07 10:22:31;;;;;;;18.30;4.15;;;;;;;14.72;66.13;99836.53;5046092;28;20055;-90
2022/10/07 10:27:59;;;;;;;15.07;2.60;;;;;;;15.05;66.96;99864.13;5046737;28;20053;-90
2022/10/07 10:30:29;;;;;;;11.80;2.58;;;;;;;15.33;65.25;99823.47;5054840;28;20085;-90
2022/10/07 10:33:08;;;;;;;12.77;2.67;;;;;;;15.70;63.95;99851.59;5065699;28;20055;-90
2022/10/07 10:35:41;;;;;;;11.52;1.80;;;;;;;15.59;63.84;99841.00;5057476;28;20049;-91
2022/10/07 10:38:23;;;;;;;9.45;2.35;;;;;;;15.73;64.94;99868.03;5050930;28;20506;-90
2022/10/07 10:41:02;;;;;;;11.00;2.00;;;;;;;15.61;62.75;99857.53;5055003;28;20458;-90
2022/10/07 10:43:49;;;;;;;11.88;2.47;;;;;;;15.48;62.85;99882.16;5062755;28;20477;-91
2022/10/07 10:46:57;;;;;;;7.93;1.63;;;;;;;15.52;61.34;99896.81;5036723;28;20046;-90
2022/10/07 10:49:42;;;;;;;11.68;2.30;;;;;;;15.20;62.73;99891.19;5033905;28;20049;-90
2022/10/07 10:53:03;;;;;;;9.77;2.22;;;;;;;15.77;61.16;99887.16;5020532;28;20057;-90
2022/10/07 10:55:40;;;;;;;17.98;2.80;;;;;;;15.58;62.83;99903.44;4978436;28;20055;-92
2022/10/07 10:58:17;;;;;;;12.10;1.95;;;;;;;15.27;62.45;99910.91;4979067;28;20057;-90
2022/10/07 11:00:47;;;;;;;9.50;2.20;;;;;;;15.18;62.68;99886.03;5034175;28;20138;-90
2022/10/07 11:03:36;;;;;;;12.48;2.42;;;;;;;15.71;62.31;99901.63;5059185;28;20510;-91
2022/10/07 11:06:06;;;;;;;4.20;1.40;;;;;;;16.08;61.49;99901.59;5038353;28;20125;-91
2022/10/07 11:08:36;;;;;;;9.25;1.65;;;;;;;15.98;61.15;99878.63;5058746;28;20049;-92
2022/10/07 11:11:08;;;;;;;13.80;1.88;;;;;;;16.19;59.63;99892.88;5053217;28;20072;-92
2022/10/07 11:13:54;;;;;;;9.73;2.20;;;;;;;16.27;60.83;99861.47;5070093;28;20482;-92
2022/10/07 11:16:44;;;;;;;6.45;1.73;;;;;;;15.99;59.83;99856.53;5059397;28;20048;-91
2022/10/07 11:19:30;;;;;;;10.82;1.77;;;;;;;16.61;58.37;99882.69;5060314;28;20053;-91
2022/10/07 11:21:59;;;;;;;16.02;2.10;;;;;;;16.59;61.14;99883.75;5055735;28;20487;-91
2022/10/07 11:24:53;;;;;;;9.38;1.60;;;;;;;16.36;58.95;99835.28;5054293;28;20056;-89
2022/10/07 11:27:28;;;;;;;8.43;1.90;;;;;;;16.54;59.90;99883.25;5054526;28;20041;-90
2022/10/07 11:30:15;;;;;;;6.05;1.58;;;;;;;16.36;59.88;99865.22;5053701;28;20713;-89
2022/10/07 11:33:08;;;;;;;9.05;2.13;;;;;;;16.64;59.63;99882.47;5056648;28;20051;-90
2022/10/07 11:35:56;;;;;;;9.98;2.08;;;;;;;16.87;60.19;99872.78;5051464;28;20438;-89
2022/10/07 11:38:35;;;;;;;10.65;1.90;;;;;;;16.87;58.88;99883.38;5053120;28;20380;-89
2022/10/07 11:41:14;;;;;;;7.50;1.88;;;;;;;16.84;58.02;99880.13;5064762;28;20048;-90
2022/10/07 11:43:48;;;;;;;5.70;1.40;;;;;;;16.77;58.20;99849.75;5051915;28;20045;-90
2022/10/07 11:46:20;;;;;;;10.70;2.00;;;;;;;17.08;56.88;99891.41;5044820;28;20045;-89
2022/10/07 11:48:56;;;;;;;8.40;1.60;;;;;;;16.59;55.79;99836.19;5038751;28;20131;-89
2022/10/07 11:51:28;;;;;;;10.93;2.00;;;;;;;16.85;53.35;99866.75;5045694;28;20483;-90
2022/10/07 11:53:59;;;;;;;10.52;1.40;;;;;;;17.00;53.20;99877.94;5036765;28;20052;-90
2022/10/07 11:56:32;;;;;;;8.80;1.58;;;;;;;16.70;53.93;99850.25;5059979;28;20037;-88